sensor_id;sensor_type;location;lat;lon;timestamp;P1;durP1;ratioP1;P2;durP2;ratioP2
13708;SDS011;54933;51.908;7.730;2023-06-05T00:01:26;0.97;;;0.50;;
13708;SDS011;54933;51.908;7.730;2023-06-05T00:03:51;1.33;;;0.70;;
13708;SDS011;54933;51.908;7.730;2023-06-05T00:06:18;0.50;;;0.50;;
13708;SDS011;54933;51.908;7.730;2023-06-05T00:08:43;1.33;;;0.63;;
13708;SDS011;54933;51.908;7.730;2023-06-05T00:11:08;0.50;;;0.50;;
13708;SDS011;54933;51.908;7.730;2023-06-05T00:13:34;1.50;;;0.50;;
13708;SDS011;54933;51.908;7.730;2023-06-05T00:15:59;0.93;;;0.50;;
13708;SDS011;54933;51.908;7.730;2023-06-05T00:18:27;0.57;;;0.50;;
13708;SDS011;54933;51.908;7.730;2023-06-05T00:20:53;0.77;;;0.70;;
13708;SDS011;54933;51.908;7.730;2023-06-05T00:23:18;0.73;;;0.53;;
13708;SDS011;54933;51.908;7.730;2023-06-05T00:25:43;0.80;;;0.80;;
13708;SDS011;54933;51.908;7.730;2023-06-05T00:28:08;0.50;;;0.50;;
13708;SDS011;54933;51.908;7.730;2023-06-05T00:30:34;0.43;;;0.40;;
13708;SDS011;54933;51.908;7.730;2023-06-05T00:33:00;0.60;;;0.50;;
13708;SDS011;54933;51.908;7.730;2023-06-05T00:35:26;0.93;;;0.40;;
13708;SDS011;54933;51.908;7.730;2023-06-05T00:37:51;0.53;;;0.53;;
13708;SDS011;54933;51.908;7.730;2023-06-05T00:40:16;0.63;;;0.63;;
13708;SDS011;54933;51.908;7.730;2023-06-05T00:42:42;0.60;;;0.60;;
13708;SDS011;54933;51.908;7.730;2023-06-05T00:45:07;0.60;;;0.60;;
13708;SDS011;54933;51.908;7.730;2023-06-05T00:47:32;0.40;;;0.40;;
13708;SDS011;54933;51.908;7.730;2023-06-05T00:49:58;0.53;;;0.53;;
13708;SDS011;54933;51.908;7.730;2023-06-05T00:52:24;0.40;;;0.30;;
13708;SDS011;54933;51.908;7.730;2023-06-05T00:54:51;1.03;;;0.50;;
13708;SDS011;54933;51.908;7.730;2023-06-05T00:57:16;0.50;;;0.50;;
13708;SDS011;54933;51.908;7.730;2023-06-05T00:59:42;0.50;;;0.50;;
13708;SDS011;54933;51.908;7.730;2023-06-05T01:02:09;0.47;;;0.40;;
13708;SDS011;54933;51.908;7.730;2023-06-05T01:04:35;0.60;;;0.37;;
13708;SDS011;54933;51.908;7.730;2023-06-05T01:07:01;0.97;;;0.70;;
13708;SDS011;54933;51.908;7.730;2023-06-05T01:09:28;0.60;;;0.60;;
13708;SDS011;54933;51.908;7.730;2023-06-05T01:12:03;0.40;;;0.40;;
13708;SDS011;54933;51.908;7.730;2023-06-05T01:14:30;0.50;;;0.50;;
13708;SDS011;54933;51.908;7.730;2023-06-05T01:16:59;0.50;;;0.50;;
13708;SDS011;54933;51.908;7.730;2023-06-05T01:19:27;0.83;;;0.53;;
13708;SDS011;54933;51.908;7.730;2023-06-05T01:21:57;0.63;;;0.63;;
13708;SDS011;54933;51.908;7.730;2023-06-05T01:24:24;0.73;;;0.70;;
13708;SDS011;54933;51.908;7.730;2023-06-05T01:26:55;1.07;;;0.87;;
13708;SDS011;54933;51.908;7.730;2023-06-05T01:29:50;0.40;;;0.40;;
13708;SDS011;54933;51.908;7.730;2023-06-05T01:32:46;0.60;;;0.60;;
13708;SDS011;54933;51.908;7.730;2023-06-05T01:35:12;0.43;;;0.43;;
13708;SDS011;54933;51.908;7.730;2023-06-05T01:37:45;0.40;;;0.40;;
13708;SDS011;54933;51.908;7.730;2023-06-05T01:40:14;0.60;;;0.60;;
13708;SDS011;54933;51.908;7.730;2023-06-05T01:42:41;0.50;;;0.50;;
13708;SDS011;54933;51.908;7.730;2023-06-05T01:45:08;0.60;;;0.60;;
13708;SDS011;54933;51.908;7.730;2023-06-05T01:47:37;0.70;;;0.50;;
13708;SDS011;54933;51.908;7.730;2023-06-05T01:50:04;0.97;;;0.50;;
13708;SDS011;54933;51.908;7.730;2023-06-05T01:52:31;0.60;;;0.60;;
13708;SDS011;54933;51.908;7.730;2023-06-05T01:54:58;0.40;;;0.40;;
13708;SDS011;54933;51.908;7.730;2023-06-05T01:57:26;0.50;;;0.50;;
13708;SDS011;54933;51.908;7.730;2023-06-05T01:59:52;0.20;;;0.20;;
13708;SDS011;54933;51.908;7.730;2023-06-05T02:02:18;0.50;;;0.50;;
13708;SDS011;54933;51.908;7.730;2023-06-05T02:04:44;0.50;;;0.50;;
13708;SDS011;54933;51.908;7.730;2023-06-05T02:07:11;0.60;;;0.60;;
13708;SDS011;54933;51.908;7.730;2023-06-05T02:09:37;0.53;;;0.53;;
13708;SDS011;54933;51.908;7.730;2023-06-05T02:12:03;0.90;;;0.60;;
13708;SDS011;54933;51.908;7.730;2023-06-05T02:14:30;1.00;;;0.60;;
13708;SDS011;54933;51.908;7.730;2023-06-05T02:17:09;0.60;;;0.43;;
13708;SDS011;54933;51.908;7.730;2023-06-05T02:19:38;0.50;;;0.40;;
13708;SDS011;54933;51.908;7.730;2023-06-05T02:22:04;0.60;;;0.57;;
13708;SDS011;54933;51.908;7.730;2023-06-05T02:24:29;0.40;;;0.40;;
13708;SDS011;54933;51.908;7.730;2023-06-05T02:26:54;0.63;;;0.60;;
13708;SDS011;54933;51.908;7.730;2023-06-05T02:29:20;0.93;;;0.60;;
13708;SDS011;54933;51.908;7.730;2023-06-05T02:31:45;0.40;;;0.40;;
13708;SDS011;54933;51.908;7.730;2023-06-05T02:34:10;0.70;;;0.70;;
13708;SDS011;54933;51.908;7.730;2023-06-05T02:36:36;0.33;;;0.33;;
13708;SDS011;54933;51.908;7.730;2023-06-05T02:39:02;1.10;;;0.50;;
13708;SDS011;54933;51.908;7.730;2023-06-05T02:41:30;0.87;;;0.50;;
13708;SDS011;54933;51.908;7.730;2023-06-05T02:43:55;0.50;;;0.50;;
13708;SDS011;54933;51.908;7.730;2023-06-05T02:46:21;0.53;;;0.53;;
13708;SDS011;54933;51.908;7.730;2023-06-05T02:48:47;0.40;;;0.40;;
13708;SDS011;54933;51.908;7.730;2023-06-05T02:51:13;0.43;;;0.43;;
13708;SDS011;54933;51.908;7.730;2023-06-05T02:53:38;0.57;;;0.57;;
13708;SDS011;54933;51.908;7.730;2023-06-05T02:56:04;0.40;;;0.40;;
13708;SDS011;54933;51.908;7.730;2023-06-05T02:58:30;0.57;;;0.57;;
13708;SDS011;54933;51.908;7.730;2023-06-05T03:00:56;0.40;;;0.40;;
13708;SDS011;54933;51.908;7.730;2023-06-05T03:03:27;0.50;;;0.50;;
13708;SDS011;54933;51.908;7.730;2023-06-05T03:05:56;0.47;;;0.40;;
13708;SDS011;54933;51.908;7.730;2023-06-05T03:08:29;0.50;;;0.50;;
13708;SDS011;54933;51.908;7.730;2023-06-05T03:10:54;0.60;;;0.60;;
13708;SDS011;54933;51.908;7.730;2023-06-05T03:13:19;0.47;;;0.47;;
13708;SDS011;54933;51.908;7.730;2023-06-05T03:15:44;0.43;;;0.43;;
13708;SDS011;54933;51.908;7.730;2023-06-05T03:18:11;0.50;;;0.50;;
13708;SDS011;54933;51.908;7.730;2023-06-05T03:20:36;0.60;;;0.60;;
13708;SDS011;54933;51.908;7.730;2023-06-05T03:23:03;0.60;;;0.50;;
13708;SDS011;54933;51.908;7.730;2023-06-05T03:25:28;0.90;;;0.90;;
13708;SDS011;54933;51.908;7.730;2023-06-05T03:27:53;0.40;;;0.40;;
13708;SDS011;54933;51.908;7.730;2023-06-05T03:30:19;0.47;;;0.43;;
13708;SDS011;54933;51.908;7.730;2023-06-05T03:32:44;0.60;;;0.60;;
13708;SDS011;54933;51.908;7.730;2023-06-05T03:35:10;0.60;;;0.60;;
13708;SDS011;54933;51.908;7.730;2023-06-05T03:37:35;0.97;;;0.47;;
13708;SDS011;54933;51.908;7.730;2023-06-05T03:40:00;0.50;;;0.50;;
13708;SDS011;54933;51.908;7.730;2023-06-05T03:42:25;0.43;;;0.43;;
13708;SDS011;54933;51.908;7.730;2023-06-05T03:44:52;0.50;;;0.50;;
13708;SDS011;54933;51.908;7.730;2023-06-05T03:47:17;0.27;;;0.27;;
13708;SDS011;54933;51.908;7.730;2023-06-05T03:49:45;0.60;;;0.60;;
13708;SDS011;54933;51.908;7.730;2023-06-05T03:52:12;0.50;;;0.50;;
13708;SDS011;54933;51.908;7.730;2023-06-05T03:54:39;0.50;;;0.50;;
13708;SDS011;54933;51.908;7.730;2023-06-05T03:57:05;3.50;;;0.40;;
13708;SDS011;54933;51.908;7.730;2023-06-05T03:59:37;0.40;;;0.40;;
13708;SDS011;54933;51.908;7.730;2023-06-05T04:02:02;0.50;;;0.50;;
13708;SDS011;54933;51.908;7.730;2023-06-05T04:04:29;1.27;;;0.63;;
13708;SDS011;54933;51.908;7.730;2023-06-05T04:06:54;0.60;;;0.60;;
13708;SDS011;54933;51.908;7.730;2023-06-05T04:09:22;0.50;;;0.50;;
13708;SDS011;54933;51.908;7.730;2023-06-05T04:11:47;0.50;;;0.50;;
13708;SDS011;54933;51.908;7.730;2023-06-05T04:14:17;0.50;;;0.50;;
13708;SDS011;54933;51.908;7.730;2023-06-05T04:16:42;0.50;;;0.50;;
13708;SDS011;54933;51.908;7.730;2023-06-05T04:19:09;0.67;;;0.67;;
13708;SDS011;54933;51.908;7.730;2023-06-05T04:21:36;0.50;;;0.50;;
13708;SDS011;54933;51.908;7.730;2023-06-05T04:24:06;0.50;;;0.40;;
13708;SDS011;54933;51.908;7.730;2023-06-05T04:26:33;0.53;;;0.53;;
13708;SDS011;54933;51.908;7.730;2023-06-05T04:28:59;1.00;;;0.53;;
13708;SDS011;54933;51.908;7.730;2023-06-05T04:31:27;0.63;;;0.63;;
13708;SDS011;54933;51.908;7.730;2023-06-05T04:33:52;0.40;;;0.40;;
13708;SDS011;54933;51.908;7.730;2023-06-05T04:36:17;0.40;;;0.40;;
13708;SDS011;54933;51.908;7.730;2023-06-05T04:38:43;1.07;;;0.70;;
13708;SDS011;54933;51.908;7.730;2023-06-05T04:41:09;0.80;;;0.67;;
13708;SDS011;54933;51.908;7.730;2023-06-05T04:43:35;0.40;;;0.40;;
13708;SDS011;54933;51.908;7.730;2023-06-05T04:46:01;0.50;;;0.50;;
13708;SDS011;54933;51.908;7.730;2023-06-05T04:48:26;0.50;;;0.50;;
13708;SDS011;54933;51.908;7.730;2023-06-05T04:50:52;1.53;;;0.53;;
13708;SDS011;54933;51.908;7.730;2023-06-05T04:53:18;1.43;;;0.60;;
13708;SDS011;54933;51.908;7.730;2023-06-05T04:55:43;0.77;;;0.50;;
13708;SDS011;54933;51.908;7.730;2023-06-05T04:58:10;0.50;;;0.50;;
13708;SDS011;54933;51.908;7.730;2023-06-05T05:00:36;0.60;;;0.60;;
13708;SDS011;54933;51.908;7.730;2023-06-05T05:03:01;2.50;;;0.80;;
13708;SDS011;54933;51.908;7.730;2023-06-05T05:05:27;1.70;;;0.60;;
13708;SDS011;54933;51.908;7.730;2023-06-05T05:07:52;0.50;;;0.50;;
13708;SDS011;54933;51.908;7.730;2023-06-05T05:10:18;0.60;;;0.60;;
13708;SDS011;54933;51.908;7.730;2023-06-05T05:12:43;0.60;;;0.60;;
13708;SDS011;54933;51.908;7.730;2023-06-05T05:15:08;3.17;;;0.90;;
13708;SDS011;54933;51.908;7.730;2023-06-05T05:17:34;2.83;;;1.20;;
13708;SDS011;54933;51.908;7.730;2023-06-05T05:20:00;65.03;;;7.60;;
13708;SDS011;54933;51.908;7.730;2023-06-05T05:22:28;30.07;;;4.93;;
13708;SDS011;54933;51.908;7.730;2023-06-05T05:24:53;48.87;;;5.47;;
13708;SDS011;54933;51.908;7.730;2023-06-05T05:27:19;44.37;;;5.60;;
13708;SDS011;54933;51.908;7.730;2023-06-05T05:29:44;30.97;;;4.83;;
13708;SDS011;54933;51.908;7.730;2023-06-05T05:32:09;26.30;;;4.27;;
13708;SDS011;54933;51.908;7.730;2023-06-05T05:34:35;23.73;;;3.73;;
13708;SDS011;54933;51.908;7.730;2023-06-05T05:37:00;23.07;;;3.53;;
13708;SDS011;54933;51.908;7.730;2023-06-05T05:39:26;23.23;;;2.67;;
13708;SDS011;54933;51.908;7.730;2023-06-05T05:41:51;20.40;;;2.60;;
13708;SDS011;54933;51.908;7.730;2023-06-05T05:44:17;27.50;;;2.73;;
13708;SDS011;54933;51.908;7.730;2023-06-05T05:46:44;18.10;;;2.10;;
13708;SDS011;54933;51.908;7.730;2023-06-05T05:49:10;18.37;;;2.70;;
13708;SDS011;54933;51.908;7.730;2023-06-05T05:51:35;15.57;;;3.43;;
13708;SDS011;54933;51.908;7.730;2023-06-05T05:54:01;13.17;;;3.10;;
13708;SDS011;54933;51.908;7.730;2023-06-05T05:56:26;21.73;;;2.47;;
13708;SDS011;54933;51.908;7.730;2023-06-05T05:58:52;18.67;;;3.37;;
13708;SDS011;54933;51.908;7.730;2023-06-05T06:01:17;17.10;;;3.20;;
13708;SDS011;54933;51.908;7.730;2023-06-05T06:03:43;11.13;;;2.43;;
13708;SDS011;54933;51.908;7.730;2023-06-05T06:06:08;8.27;;;2.03;;
13708;SDS011;54933;51.908;7.730;2023-06-05T06:08:34;14.50;;;2.20;;
13708;SDS011;54933;51.908;7.730;2023-06-05T06:11:00;9.07;;;2.40;;
13708;SDS011;54933;51.908;7.730;2023-06-05T06:13:25;11.37;;;1.57;;
13708;SDS011;54933;51.908;7.730;2023-06-05T06:15:51;13.57;;;3.10;;
13708;SDS011;54933;51.908;7.730;2023-06-05T06:18:16;14.20;;;2.10;;
13708;SDS011;54933;51.908;7.730;2023-06-05T06:20:41;6.07;;;1.57;;
13708;SDS011;54933;51.908;7.730;2023-06-05T06:23:07;10.63;;;1.63;;
13708;SDS011;54933;51.908;7.730;2023-06-05T06:25:32;13.17;;;2.10;;
13708;SDS011;54933;51.908;7.730;2023-06-05T06:27:59;6.70;;;2.50;;
13708;SDS011;54933;51.908;7.730;2023-06-05T06:30:25;3.47;;;1.50;;
13708;SDS011;54933;51.908;7.730;2023-06-05T06:32:51;4.27;;;1.20;;
13708;SDS011;54933;51.908;7.730;2023-06-05T06:35:16;3.90;;;1.37;;
13708;SDS011;54933;51.908;7.730;2023-06-05T06:37:41;12.47;;;1.97;;
13708;SDS011;54933;51.908;7.730;2023-06-05T06:40:07;5.13;;;1.60;;
13708;SDS011;54933;51.908;7.730;2023-06-05T06:42:39;8.03;;;2.00;;
13708;SDS011;54933;51.908;7.730;2023-06-05T06:45:04;7.67;;;1.50;;
13708;SDS011;54933;51.908;7.730;2023-06-05T06:47:30;7.40;;;1.40;;
13708;SDS011;54933;51.908;7.730;2023-06-05T06:49:55;11.63;;;1.60;;
13708;SDS011;54933;51.908;7.730;2023-06-05T06:52:21;9.70;;;1.67;;
13708;SDS011;54933;51.908;7.730;2023-06-05T06:54:47;4.43;;;1.50;;
13708;SDS011;54933;51.908;7.730;2023-06-05T06:57:13;13.40;;;1.80;;
13708;SDS011;54933;51.908;7.730;2023-06-05T06:59:39;1.50;;;1.10;;
13708;SDS011;54933;51.908;7.730;2023-06-05T07:04:33;5.00;;;1.40;;
13708;SDS011;54933;51.908;7.730;2023-06-05T07:06:59;9.57;;;1.87;;
13708;SDS011;54933;51.908;7.730;2023-06-05T07:09:25;4.67;;;1.60;;
13708;SDS011;54933;51.908;7.730;2023-06-05T07:11:50;6.60;;;1.23;;
13708;SDS011;54933;51.908;7.730;2023-06-05T07:14:16;4.27;;;1.27;;
13708;SDS011;54933;51.908;7.730;2023-06-05T07:16:41;3.70;;;1.30;;
13708;SDS011;54933;51.908;7.730;2023-06-05T07:19:06;3.93;;;1.47;;
13708;SDS011;54933;51.908;7.730;2023-06-05T07:21:31;3.83;;;0.83;;
13708;SDS011;54933;51.908;7.730;2023-06-05T07:24:02;4.10;;;1.23;;
13708;SDS011;54933;51.908;7.730;2023-06-05T07:26:29;1.73;;;1.10;;
13708;SDS011;54933;51.908;7.730;2023-06-05T07:28:54;3.87;;;1.10;;
13708;SDS011;54933;51.908;7.730;2023-06-05T07:31:19;0.90;;;0.90;;
13708;SDS011;54933;51.908;7.730;2023-06-05T07:33:46;3.27;;;0.90;;
13708;SDS011;54933;51.908;7.730;2023-06-05T07:36:11;6.53;;;1.60;;
13708;SDS011;54933;51.908;7.730;2023-06-05T07:38:39;3.00;;;1.30;;
13708;SDS011;54933;51.908;7.730;2023-06-05T07:41:05;2.27;;;1.17;;
13708;SDS011;54933;51.908;7.730;2023-06-05T07:43:31;4.13;;;1.23;;
13708;SDS011;54933;51.908;7.730;2023-06-05T07:45:56;1.53;;;1.10;;
13708;SDS011;54933;51.908;7.730;2023-06-05T07:48:21;2.20;;;0.80;;
13708;SDS011;54933;51.908;7.730;2023-06-05T07:50:47;3.70;;;1.17;;
13708;SDS011;54933;51.908;7.730;2023-06-05T07:53:12;3.67;;;0.90;;
13708;SDS011;54933;51.908;7.730;2023-06-05T07:55:37;4.73;;;1.10;;
13708;SDS011;54933;51.908;7.730;2023-06-05T07:58:03;2.23;;;0.90;;
13708;SDS011;54933;51.908;7.730;2023-06-05T08:00:28;3.90;;;0.97;;
13708;SDS011;54933;51.908;7.730;2023-06-05T08:02:53;3.60;;;1.03;;
13708;SDS011;54933;51.908;7.730;2023-06-05T08:05:19;3.30;;;1.00;;
13708;SDS011;54933;51.908;7.730;2023-06-05T08:07:45;1.77;;;0.83;;
13708;SDS011;54933;51.908;7.730;2023-06-05T08:10:11;1.60;;;1.03;;
13708;SDS011;54933;51.908;7.730;2023-06-05T08:12:36;1.47;;;0.97;;
13708;SDS011;54933;51.908;7.730;2023-06-05T08:15:02;2.27;;;0.90;;
13708;SDS011;54933;51.908;7.730;2023-06-05T08:17:28;1.30;;;1.20;;
13708;SDS011;54933;51.908;7.730;2023-06-05T08:19:53;1.43;;;1.17;;
13708;SDS011;54933;51.908;7.730;2023-06-05T08:22:19;2.60;;;1.30;;
13708;SDS011;54933;51.908;7.730;2023-06-05T08:24:44;3.63;;;1.63;;
13708;SDS011;54933;51.908;7.730;2023-06-05T08:27:10;2.27;;;1.27;;
13708;SDS011;54933;51.908;7.730;2023-06-05T08:29:35;1.10;;;1.00;;
13708;SDS011;54933;51.908;7.730;2023-06-05T08:32:02;1.00;;;1.00;;
13708;SDS011;54933;51.908;7.730;2023-06-05T08:34:29;1.83;;;0.90;;
13708;SDS011;54933;51.908;7.730;2023-06-05T08:36:55;1.70;;;0.73;;
13708;SDS011;54933;51.908;7.730;2023-06-05T08:39:23;0.63;;;0.63;;
13708;SDS011;54933;51.908;7.730;2023-06-05T08:41:52;1.60;;;0.90;;
13708;SDS011;54933;51.908;7.730;2023-06-05T08:44:17;2.57;;;0.80;;
13708;SDS011;54933;51.908;7.730;2023-06-05T08:46:42;0.97;;;0.73;;
13708;SDS011;54933;51.908;7.730;2023-06-05T08:49:10;1.80;;;1.00;;
13708;SDS011;54933;51.908;7.730;2023-06-05T08:51:37;1.93;;;0.87;;
13708;SDS011;54933;51.908;7.730;2023-06-05T08:54:05;1.23;;;0.90;;
13708;SDS011;54933;51.908;7.730;2023-06-05T08:56:37;1.70;;;0.80;;
13708;SDS011;54933;51.908;7.730;2023-06-05T08:59:04;1.00;;;0.90;;
13708;SDS011;54933;51.908;7.730;2023-06-05T09:01:30;0.87;;;0.70;;
13708;SDS011;54933;51.908;7.730;2023-06-05T09:03:57;1.00;;;0.90;;
13708;SDS011;54933;51.908;7.730;2023-06-05T09:06:22;2.77;;;0.97;;
13708;SDS011;54933;51.908;7.730;2023-06-05T09:08:48;1.47;;;1.00;;
13708;SDS011;54933;51.908;7.730;2023-06-05T09:11:30;2.60;;;0.83;;
13708;SDS011;54933;51.908;7.730;2023-06-05T09:13:57;1.60;;;0.83;;
13708;SDS011;54933;51.908;7.730;2023-06-05T09:16:32;2.20;;;0.80;;
13708;SDS011;54933;51.908;7.730;2023-06-05T09:18:59;0.70;;;0.70;;
13708;SDS011;54933;51.908;7.730;2023-06-05T09:21:25;0.90;;;0.77;;
13708;SDS011;54933;51.908;7.730;2023-06-05T09:26:52;0.77;;;0.60;;
13708;SDS011;54933;51.908;7.730;2023-06-05T09:32:00;1.40;;;0.97;;
13708;SDS011;54933;51.908;7.730;2023-06-05T09:34:28;2.03;;;0.90;;
13708;SDS011;54933;51.908;7.730;2023-06-05T09:36:58;1.10;;;1.00;;
13708;SDS011;54933;51.908;7.730;2023-06-05T09:39:25;0.93;;;0.80;;
13708;SDS011;54933;51.908;7.730;2023-06-05T09:41:51;0.90;;;0.90;;
13708;SDS011;54933;51.908;7.730;2023-06-05T09:44:17;1.17;;;0.90;;
13708;SDS011;54933;51.908;7.730;2023-06-05T09:46:50;1.20;;;0.93;;
13708;SDS011;54933;51.908;7.730;2023-06-05T09:49:45;0.70;;;0.70;;
13708;SDS011;54933;51.908;7.730;2023-06-05T09:52:12;1.07;;;0.70;;
13708;SDS011;54933;51.908;7.730;2023-06-05T09:54:39;0.90;;;0.70;;
13708;SDS011;54933;51.908;7.730;2023-06-05T09:57:07;1.07;;;0.90;;
13708;SDS011;54933;51.908;7.730;2023-06-05T09:59:40;0.80;;;0.73;;
13708;SDS011;54933;51.908;7.730;2023-06-05T10:02:10;1.10;;;1.00;;
13708;SDS011;54933;51.908;7.730;2023-06-05T10:04:42;0.70;;;0.70;;
13708;SDS011;54933;51.908;7.730;2023-06-05T10:07:11;1.13;;;1.03;;
13708;SDS011;54933;51.908;7.730;2023-06-05T10:09:38;0.90;;;0.90;;
13708;SDS011;54933;51.908;7.730;2023-06-05T10:12:04;0.70;;;0.70;;
13708;SDS011;54933;51.908;7.730;2023-06-05T10:14:32;1.30;;;0.70;;
13708;SDS011;54933;51.908;7.730;2023-06-05T10:17:01;0.90;;;0.90;;
13708;SDS011;54933;51.908;7.730;2023-06-05T10:19:27;1.27;;;0.80;;
13708;SDS011;54933;51.908;7.730;2023-06-05T10:21:55;0.80;;;0.80;;
13708;SDS011;54933;51.908;7.730;2023-06-05T10:24:22;0.50;;;0.50;;
13708;SDS011;54933;51.908;7.730;2023-06-05T10:27:02;1.60;;;0.70;;
13708;SDS011;54933;51.908;7.730;2023-06-05T10:35:35;1.27;;;0.80;;
13708;SDS011;54933;51.908;7.730;2023-06-05T10:38:23;0.87;;;0.87;;
13708;SDS011;54933;51.908;7.730;2023-06-05T10:40:57;0.70;;;0.70;;
13708;SDS011;54933;51.908;7.730;2023-06-05T10:45:52;0.63;;;0.60;;
13708;SDS011;54933;51.908;7.730;2023-06-05T10:48:18;1.10;;;0.77;;
13708;SDS011;54933;51.908;7.730;2023-06-05T10:50:43;0.90;;;0.90;;
13708;SDS011;54933;51.908;7.730;2023-06-05T10:53:40;0.60;;;0.60;;
13708;SDS011;54933;51.908;7.730;2023-06-05T10:56:07;1.47;;;0.60;;
13708;SDS011;54933;51.908;7.730;2023-06-05T10:58:32;0.70;;;0.70;;
13708;SDS011;54933;51.908;7.730;2023-06-05T11:03:55;0.67;;;0.67;;
13708;SDS011;54933;51.908;7.730;2023-06-05T11:06:22;0.73;;;0.73;;
13708;SDS011;54933;51.908;7.730;2023-06-05T11:14:22;2.63;;;0.60;;
13708;SDS011;54933;51.908;7.730;2023-06-05T11:16:48;0.83;;;0.80;;
13708;SDS011;54933;51.908;7.730;2023-06-05T11:24:36;0.53;;;0.53;;
13708;SDS011;54933;51.908;7.730;2023-06-05T11:27:02;2.37;;;0.70;;
13708;SDS011;54933;51.908;7.730;2023-06-05T11:29:28;0.63;;;0.60;;
13708;SDS011;54933;51.908;7.730;2023-06-05T11:31:54;0.63;;;0.60;;
13708;SDS011;54933;51.908;7.730;2023-06-05T11:34:20;0.60;;;0.60;;
13708;SDS011;54933;51.908;7.730;2023-06-05T11:36:45;0.50;;;0.50;;
13708;SDS011;54933;51.908;7.730;2023-06-05T11:39:11;1.37;;;0.40;;
13708;SDS011;54933;51.908;7.730;2023-06-05T11:41:44;0.97;;;0.90;;
13708;SDS011;54933;51.908;7.730;2023-06-05T11:44:11;0.67;;;0.67;;
13708;SDS011;54933;51.908;7.730;2023-06-05T11:46:40;0.60;;;0.60;;
13708;SDS011;54933;51.908;7.730;2023-06-05T11:49:08;1.50;;;0.50;;
13708;SDS011;54933;51.908;7.730;2023-06-05T11:51:47;0.40;;;0.40;;
13708;SDS011;54933;51.908;7.730;2023-06-05T11:54:22;1.13;;;0.50;;
13708;SDS011;54933;51.908;7.730;2023-06-05T11:56:48;0.60;;;0.60;;
13708;SDS011;54933;51.908;7.730;2023-06-05T11:59:17;0.73;;;0.60;;
13708;SDS011;54933;51.908;7.730;2023-06-05T12:01:43;0.73;;;0.70;;
13708;SDS011;54933;51.908;7.730;2023-06-05T12:04:09;4.60;;;0.67;;
13708;SDS011;54933;51.908;7.730;2023-06-05T12:06:40;0.70;;;0.70;;
13708;SDS011;54933;51.908;7.730;2023-06-05T12:09:07;0.53;;;0.53;;
13708;SDS011;54933;51.908;7.730;2023-06-05T12:11:36;0.60;;;0.60;;
13708;SDS011;54933;51.908;7.730;2023-06-05T12:14:09;0.73;;;0.70;;
13708;SDS011;54933;51.908;7.730;2023-06-05T12:16:36;0.87;;;0.80;;
13708;SDS011;54933;51.908;7.730;2023-06-05T12:19:03;0.77;;;0.77;;
13708;SDS011;54933;51.908;7.730;2023-06-05T12:21:38;0.53;;;0.53;;
13708;SDS011;54933;51.908;7.730;2023-06-05T12:24:04;0.60;;;0.60;;
13708;SDS011;54933;51.908;7.730;2023-06-05T12:26:37;0.60;;;0.60;;
13708;SDS011;54933;51.908;7.730;2023-06-05T12:29:21;0.70;;;0.70;;
13708;SDS011;54933;51.908;7.730;2023-06-05T12:31:54;0.50;;;0.50;;
13708;SDS011;54933;51.908;7.730;2023-06-05T12:34:39;0.70;;;0.60;;
13708;SDS011;54933;51.908;7.730;2023-06-05T12:37:07;0.60;;;0.60;;
13708;SDS011;54933;51.908;7.730;2023-06-05T12:39:33;0.60;;;0.60;;
13708;SDS011;54933;51.908;7.730;2023-06-05T12:41:59;0.60;;;0.60;;
13708;SDS011;54933;51.908;7.730;2023-06-05T12:44:24;0.60;;;0.60;;
13708;SDS011;54933;51.908;7.730;2023-06-05T12:46:49;0.60;;;0.60;;
13708;SDS011;54933;51.908;7.730;2023-06-05T12:49:14;0.70;;;0.70;;
13708;SDS011;54933;51.908;7.730;2023-06-05T12:51:40;0.40;;;0.40;;
13708;SDS011;54933;51.908;7.730;2023-06-05T12:54:05;0.63;;;0.60;;
13708;SDS011;54933;51.908;7.730;2023-06-05T12:56:31;0.57;;;0.57;;
13708;SDS011;54933;51.908;7.730;2023-06-05T12:58:58;0.70;;;0.70;;
13708;SDS011;54933;51.908;7.730;2023-06-05T13:01:24;0.60;;;0.60;;
13708;SDS011;54933;51.908;7.730;2023-06-05T13:03:54;0.60;;;0.60;;
13708;SDS011;54933;51.908;7.730;2023-06-05T13:06:19;0.50;;;0.50;;
13708;SDS011;54933;51.908;7.730;2023-06-05T13:08:45;0.70;;;0.70;;
13708;SDS011;54933;51.908;7.730;2023-06-05T13:11:12;0.60;;;0.60;;
13708;SDS011;54933;51.908;7.730;2023-06-05T13:13:38;0.57;;;0.57;;
13708;SDS011;54933;51.908;7.730;2023-06-05T13:16:03;0.50;;;0.50;;
13708;SDS011;54933;51.908;7.730;2023-06-05T13:18:32;0.50;;;0.50;;
13708;SDS011;54933;51.908;7.730;2023-06-05T13:20:58;0.70;;;0.70;;
13708;SDS011;54933;51.908;7.730;2023-06-05T13:23:24;0.73;;;0.60;;
13708;SDS011;54933;51.908;7.730;2023-06-05T13:25:50;0.40;;;0.40;;
13708;SDS011;54933;51.908;7.730;2023-06-05T13:28:15;0.60;;;0.60;;
13708;SDS011;54933;51.908;7.730;2023-06-05T13:30:40;0.60;;;0.60;;
13708;SDS011;54933;51.908;7.730;2023-06-05T13:33:06;0.50;;;0.50;;
13708;SDS011;54933;51.908;7.730;2023-06-05T13:35:31;0.53;;;0.53;;
13708;SDS011;54933;51.908;7.730;2023-06-05T13:37:56;0.70;;;0.70;;
13708;SDS011;54933;51.908;7.730;2023-06-05T13:40:21;0.60;;;0.60;;
13708;SDS011;54933;51.908;7.730;2023-06-05T13:42:47;0.50;;;0.50;;
13708;SDS011;54933;51.908;7.730;2023-06-05T13:45:13;0.50;;;0.50;;
13708;SDS011;54933;51.908;7.730;2023-06-05T13:47:38;0.50;;;0.50;;
13708;SDS011;54933;51.908;7.730;2023-06-05T13:50:04;0.50;;;0.50;;
13708;SDS011;54933;51.908;7.730;2023-06-05T13:52:29;0.50;;;0.50;;
13708;SDS011;54933;51.908;7.730;2023-06-05T13:54:55;0.67;;;0.67;;
13708;SDS011;54933;51.908;7.730;2023-06-05T13:57:20;0.60;;;0.60;;
13708;SDS011;54933;51.908;7.730;2023-06-05T13:59:45;0.60;;;0.60;;
13708;SDS011;54933;51.908;7.730;2023-06-05T14:02:11;0.40;;;0.40;;
13708;SDS011;54933;51.908;7.730;2023-06-05T14:04:37;1.23;;;0.63;;
13708;SDS011;54933;51.908;7.730;2023-06-05T14:07:02;0.57;;;0.57;;
13708;SDS011;54933;51.908;7.730;2023-06-05T14:09:28;0.60;;;0.60;;
13708;SDS011;54933;51.908;7.730;2023-06-05T14:11:54;0.73;;;0.73;;
13708;SDS011;54933;51.908;7.730;2023-06-05T14:14:20;0.73;;;0.73;;
13708;SDS011;54933;51.908;7.730;2023-06-05T14:16:45;0.60;;;0.60;;
13708;SDS011;54933;51.908;7.730;2023-06-05T14:19:10;0.60;;;0.60;;
13708;SDS011;54933;51.908;7.730;2023-06-05T14:21:35;0.77;;;0.67;;
13708;SDS011;54933;51.908;7.730;2023-06-05T14:24:02;0.63;;;0.63;;
13708;SDS011;54933;51.908;7.730;2023-06-05T14:26:28;0.73;;;0.73;;
13708;SDS011;54933;51.908;7.730;2023-06-05T14:28:54;0.50;;;0.50;;
13708;SDS011;54933;51.908;7.730;2023-06-05T14:31:19;0.50;;;0.50;;
13708;SDS011;54933;51.908;7.730;2023-06-05T14:33:45;0.50;;;0.50;;
13708;SDS011;54933;51.908;7.730;2023-06-05T14:36:10;0.60;;;0.60;;
13708;SDS011;54933;51.908;7.730;2023-06-05T14:38:35;0.93;;;0.60;;
13708;SDS011;54933;51.908;7.730;2023-06-05T14:41:00;3.27;;;1.50;;
13708;SDS011;54933;51.908;7.730;2023-06-05T14:43:26;11.60;;;1.63;;
13708;SDS011;54933;51.908;7.730;2023-06-05T14:45:51;8.13;;;1.50;;
13708;SDS011;54933;51.908;7.730;2023-06-05T14:48:17;16.23;;;1.73;;
13708;SDS011;54933;51.908;7.730;2023-06-05T14:50:42;14.53;;;1.30;;
13708;SDS011;54933;51.908;7.730;2023-06-05T14:53:08;13.77;;;2.73;;
13708;SDS011;54933;51.908;7.730;2023-06-05T14:55:33;11.63;;;1.33;;
13708;SDS011;54933;51.908;7.730;2023-06-05T14:57:58;11.63;;;1.40;;
13708;SDS011;54933;51.908;7.730;2023-06-05T15:00:23;5.43;;;1.00;;
13708;SDS011;54933;51.908;7.730;2023-06-05T15:02:49;6.73;;;1.23;;
13708;SDS011;54933;51.908;7.730;2023-06-05T15:05:14;3.90;;;0.80;;
13708;SDS011;54933;51.908;7.730;2023-06-05T15:07:40;4.07;;;1.17;;
13708;SDS011;54933;51.908;7.730;2023-06-05T15:10:06;6.43;;;1.00;;
13708;SDS011;54933;51.908;7.730;2023-06-05T15:12:33;11.77;;;1.20;;
13708;SDS011;54933;51.908;7.730;2023-06-05T15:14:59;5.03;;;1.03;;